sensor_id;sensor_type;location;lat;lon;timestamp;temperature;humidity
13470;DHT22;6807;48.682;9.032;2023-04-29T00:01:26;9.40;1.00
13470;DHT22;6807;48.682;9.032;2023-04-29T00:03:54;9.40;1.00
13470;DHT22;6807;48.682;9.032;2023-04-29T00:06:21;9.30;1.00
13470;DHT22;6807;48.682;9.032;2023-04-29T00:08:48;9.20;1.00
13470;DHT22;6807;48.682;9.032;2023-04-29T00:11:16;9.20;1.00
13470;DHT22;6807;48.682;9.032;2023-04-29T00:13:43;9.20;1.00
13470;DHT22;6807;48.682;9.032;2023-04-29T00:16:12;9.30;1.00
13470;DHT22;6807;48.682;9.032;2023-04-29T00:18:39;9.20;1.00
13470;DHT22;6807;48.682;9.032;2023-04-29T00:21:06;9.20;1.00
13470;DHT22;6807;48.682;9.032;2023-04-29T00:23:34;9.30;1.00
13470;DHT22;6807;48.682;9.032;2023-04-29T00:26:01;9.30;1.00
13470;DHT22;6807;48.682;9.032;2023-04-29T00:28:28;9.20;1.00
13470;DHT22;6807;48.682;9.032;2023-04-29T00:30:55;9.20;1.00
13470;DHT22;6807;48.682;9.032;2023-04-29T00:33:24;9.20;1.00
13470;DHT22;6807;48.682;9.032;2023-04-29T00:35:51;9.10;4.20
13470;DHT22;6807;48.682;9.032;2023-04-29T00:38:18;9.10;23.60
13470;DHT22;6807;48.682;9.032;2023-04-29T00:40:46;9.00;23.00
13470;DHT22;6807;48.682;9.032;2023-04-29T00:43:13;9.00;28.30
13470;DHT22;6807;48.682;9.032;2023-04-29T00:45:40;9.00;28.70
13470;DHT22;6807;48.682;9.032;2023-04-29T00:48:07;9.00;26.20
13470;DHT22;6807;48.682;9.032;2023-04-29T00:50:36;9.00;29.20
13470;DHT22;6807;48.682;9.032;2023-04-29T00:53:03;9.00;28.60
13470;DHT22;6807;48.682;9.032;2023-04-29T00:55:32;8.90;28.40
13470;DHT22;6807;48.682;9.032;2023-04-29T00:57:59;9.00;23.30
13470;DHT22;6807;48.682;9.032;2023-04-29T01:00:27;8.90;28.80
13470;DHT22;6807;48.682;9.032;2023-04-29T01:02:54;8.90;27.90
13470;DHT22;6807;48.682;9.032;2023-04-29T01:05:22;8.90;24.70
13470;DHT22;6807;48.682;9.032;2023-04-29T01:08:08;9.00;23.50
13470;DHT22;6807;48.682;9.032;2023-04-29T01:10:43;8.90;26.00
13470;DHT22;6807;48.682;9.032;2023-04-29T01:13:17;9.00;29.60
13470;DHT22;6807;48.682;9.032;2023-04-29T01:15:53;9.00;30.70
13470;DHT22;6807;48.682;9.032;2023-04-29T01:18:26;9.00;44.60
13470;DHT22;6807;48.682;9.032;2023-04-29T01:20:56;9.00;48.30
13470;DHT22;6807;48.682;9.032;2023-04-29T01:23:26;9.10;51.90
13470;DHT22;6807;48.682;9.032;2023-04-29T01:25:53;9.00;46.90
13470;DHT22;6807;48.682;9.032;2023-04-29T01:28:29;9.10;48.70
13470;DHT22;6807;48.682;9.032;2023-04-29T01:31:04;9.10;49.90
13470;DHT22;6807;48.682;9.032;2023-04-29T01:33:40;9.10;58.30
13470;DHT22;6807;48.682;9.032;2023-04-29T01:36:19;9.10;54.50
13470;DHT22;6807;48.682;9.032;2023-04-29T01:38:58;9.10;69.00
13470;DHT22;6807;48.682;9.032;2023-04-29T01:41:34;9.10;90.70
13470;DHT22;6807;48.682;9.032;2023-04-29T01:44:02;9.00;91.80
13470;DHT22;6807;48.682;9.032;2023-04-29T01:46:30;9.00;93.90
13470;DHT22;6807;48.682;9.032;2023-04-29T01:48:57;9.00;99.90
13470;DHT22;6807;48.682;9.032;2023-04-29T01:51:25;9.00;99.90
13470;DHT22;6807;48.682;9.032;2023-04-29T01:53:55;8.90;99.90
13470;DHT22;6807;48.682;9.032;2023-04-29T01:56:23;8.90;99.90
13470;DHT22;6807;48.682;9.032;2023-04-29T01:58:50;8.90;99.90
13470;DHT22;6807;48.682;9.032;2023-04-29T02:01:17;8.80;99.90
13470;DHT22;6807;48.682;9.032;2023-04-29T02:03:44;8.70;99.90
13470;DHT22;6807;48.682;9.032;2023-04-29T02:06:12;8.70;99.90
13470;DHT22;6807;48.682;9.032;2023-04-29T02:08:39;8.70;99.90
13470;DHT22;6807;48.682;9.032;2023-04-29T02:11:07;8.70;99.90
13470;DHT22;6807;48.682;9.032;2023-04-29T02:13:34;8.70;99.90
13470;DHT22;6807;48.682;9.032;2023-04-29T02:16:08;8.70;99.90
13470;DHT22;6807;48.682;9.032;2023-04-29T02:18:35;8.80;99.90
13470;DHT22;6807;48.682;9.032;2023-04-29T02:21:03;8.70;99.90
13470;DHT22;6807;48.682;9.032;2023-04-29T02:23:30;8.50;99.90
13470;DHT22;6807;48.682;9.032;2023-04-29T02:25:58;8.40;99.90
13470;DHT22;6807;48.682;9.032;2023-04-29T02:28:27;8.40;99.90
13470;DHT22;6807;48.682;9.032;2023-04-29T02:30:54;8.30;99.90
13470;DHT22;6807;48.682;9.032;2023-04-29T02:33:22;7.70;99.90
13470;DHT22;6807;48.682;9.032;2023-04-29T02:35:49;8.30;99.90
13470;DHT22;6807;48.682;9.032;2023-04-29T02:38:16;8.30;99.90
13470;DHT22;6807;48.682;9.032;2023-04-29T02:40:44;8.30;99.90
13470;DHT22;6807;48.682;9.032;2023-04-29T02:43:12;8.30;99.90
13470;DHT22;6807;48.682;9.032;2023-04-29T02:45:40;8.30;99.90
13470;DHT22;6807;48.682;9.032;2023-04-29T02:48:07;8.30;99.90
13470;DHT22;6807;48.682;9.032;2023-04-29T02:50:34;8.20;99.90
13470;DHT22;6807;48.682;9.032;2023-04-29T02:53:01;8.20;99.90
13470;DHT22;6807;48.682;9.032;2023-04-29T02:55:29;8.20;99.90
13470;DHT22;6807;48.682;9.032;2023-04-29T02:57:56;8.20;99.90
13470;DHT22;6807;48.682;9.032;2023-04-29T03:00:23;8.20;99.90
13470;DHT22;6807;48.682;9.032;2023-04-29T03:02:51;8.10;99.90
13470;DHT22;6807;48.682;9.032;2023-04-29T03:05:19;8.10;99.90
13470;DHT22;6807;48.682;9.032;2023-04-29T03:07:46;8.00;99.90
13470;DHT22;6807;48.682;9.032;2023-04-29T03:10:13;7.90;99.90
13470;DHT22;6807;48.682;9.032;2023-04-29T03:12:40;7.90;99.90
13470;DHT22;6807;48.682;9.032;2023-04-29T03:15:07;7.90;99.90
13470;DHT22;6807;48.682;9.032;2023-04-29T03:17:35;8.00;99.90
13470;DHT22;6807;48.682;9.032;2023-04-29T03:20:05;8.00;99.90
13470;DHT22;6807;48.682;9.032;2023-04-29T03:22:32;8.00;99.90
13470;DHT22;6807;48.682;9.032;2023-04-29T03:24:59;8.00;99.90
13470;DHT22;6807;48.682;9.032;2023-04-29T03:27:27;7.80;99.90
13470;DHT22;6807;48.682;9.032;2023-04-29T03:29:54;7.90;99.90
13470;DHT22;6807;48.682;9.032;2023-04-29T03:32:21;7.90;99.90
13470;DHT22;6807;48.682;9.032;2023-04-29T03:34:48;8.00;99.90
13470;DHT22;6807;48.682;9.032;2023-04-29T03:37:17;7.90;99.90
13470;DHT22;6807;48.682;9.032;2023-04-29T03:39:44;7.90;99.90
13470;DHT22;6807;48.682;9.032;2023-04-29T03:42:11;7.90;99.90
13470;DHT22;6807;48.682;9.032;2023-04-29T03:44:38;8.00;99.90
13470;DHT22;6807;48.682;9.032;2023-04-29T03:47:06;8.10;99.90
13470;DHT22;6807;48.682;9.032;2023-04-29T03:49:34;8.20;1.00
13470;DHT22;6807;48.682;9.032;2023-04-29T03:52:01;8.30;1.00
13470;DHT22;6807;48.682;9.032;2023-04-29T03:54:30;8.20;1.00
13470;DHT22;6807;48.682;9.032;2023-04-29T03:56:58;8.10;1.00
13470;DHT22;6807;48.682;9.032;2023-04-29T03:59:25;8.00;1.00
13470;DHT22;6807;48.682;9.032;2023-04-29T04:01:52;7.90;1.00
13470;DHT22;6807;48.682;9.032;2023-04-29T04:04:19;7.90;1.00
13470;DHT22;6807;48.682;9.032;2023-04-29T04:06:46;7.90;1.00
13470;DHT22;6807;48.682;9.032;2023-04-29T04:09:16;7.90;1.00
13470;DHT22;6807;48.682;9.032;2023-04-29T04:11:45;7.80;1.00
13470;DHT22;6807;48.682;9.032;2023-04-29T04:14:12;7.80;1.00
13470;DHT22;6807;48.682;9.032;2023-04-29T04:16:39;7.80;1.00
13470;DHT22;6807;48.682;9.032;2023-04-29T04:19:06;7.70;1.00
13470;DHT22;6807;48.682;9.032;2023-04-29T04:21:34;7.60;1.00
13470;DHT22;6807;48.682;9.032;2023-04-29T04:24:01;7.60;1.00
13470;DHT22;6807;48.682;9.032;2023-04-29T04:26:28;7.60;1.00
13470;DHT22;6807;48.682;9.032;2023-04-29T04:28:57;7.70;1.00
13470;DHT22;6807;48.682;9.032;2023-04-29T04:31:24;7.70;1.00
13470;DHT22;6807;48.682;9.032;2023-04-29T04:33:51;7.70;1.00
13470;DHT22;6807;48.682;9.032;2023-04-29T04:36:18;7.70;1.00
13470;DHT22;6807;48.682;9.032;2023-04-29T04:38:45;7.70;1.00
13470;DHT22;6807;48.682;9.032;2023-04-29T04:41:13;7.70;1.00
13470;DHT22;6807;48.682;9.032;2023-04-29T04:43:40;7.60;1.00
13470;DHT22;6807;48.682;9.032;2023-04-29T04:46:12;7.70;1.00
13470;DHT22;6807;48.682;9.032;2023-04-29T04:48:40;7.70;1.00
13470;DHT22;6807;48.682;9.032;2023-04-29T04:51:07;7.70;1.00
13470;DHT22;6807;48.682;9.032;2023-04-29T04:53:35;7.70;1.00
13470;DHT22;6807;48.682;9.032;2023-04-29T04:56:02;7.70;1.00
13470;DHT22;6807;48.682;9.032;2023-04-29T04:58:30;7.70;1.00
13470;DHT22;6807;48.682;9.032;2023-04-29T05:00:58;7.80;1.00
13470;DHT22;6807;48.682;9.032;2023-04-29T05:03:26;7.80;1.00
13470;DHT22;6807;48.682;9.032;2023-04-29T05:05:53;7.90;1.00
13470;DHT22;6807;48.682;9.032;2023-04-29T05:08:23;8.10;1.00
13470;DHT22;6807;48.682;9.032;2023-04-29T05:10:50;8.10;1.00
13470;DHT22;6807;48.682;9.032;2023-04-29T05:13:20;8.20;1.00
13470;DHT22;6807;48.682;9.032;2023-04-29T05:15:50;8.20;1.00
13470;DHT22;6807;48.682;9.032;2023-04-29T05:18:17;8.30;1.00
13470;DHT22;6807;48.682;9.032;2023-04-29T05:20:47;8.40;1.00
13470;DHT22;6807;48.682;9.032;2023-04-29T05:23:15;8.40;1.00
13470;DHT22;6807;48.682;9.032;2023-04-29T05:25:42;8.60;1.00
13470;DHT22;6807;48.682;9.032;2023-04-29T05:28:09;8.80;1.00
13470;DHT22;6807;48.682;9.032;2023-04-29T05:30:36;9.00;1.00
13470;DHT22;6807;48.682;9.032;2023-04-29T05:33:03;9.10;1.00
13470;DHT22;6807;48.682;9.032;2023-04-29T05:35:30;9.30;1.00
13470;DHT22;6807;48.682;9.032;2023-04-29T05:37:59;9.50;1.00
13470;DHT22;6807;48.682;9.032;2023-04-29T05:40:26;9.60;13.80
13470;DHT22;6807;48.682;9.032;2023-04-29T05:42:53;9.70;16.10
13470;DHT22;6807;48.682;9.032;2023-04-29T05:45:20;10.00;24.30
13470;DHT22;6807;48.682;9.032;2023-04-29T05:47:47;10.10;35.30
13470;DHT22;6807;48.682;9.032;2023-04-29T05:50:15;10.00;43.70
13470;DHT22;6807;48.682;9.032;2023-04-29T05:52:42;9.90;52.20
13470;DHT22;6807;48.682;9.032;2023-04-29T05:55:11;9.90;53.10
13470;DHT22;6807;48.682;9.032;2023-04-29T05:57:38;10.00;62.00
13470;DHT22;6807;48.682;9.032;2023-04-29T06:00:06;10.40;62.20
13470;DHT22;6807;48.682;9.032;2023-04-29T06:02:33;10.70;70.70
13470;DHT22;6807;48.682;9.032;2023-04-29T06:05:01;11.10;74.60
13470;DHT22;6807;48.682;9.032;2023-04-29T06:07:29;11.20;97.90
13470;DHT22;6807;48.682;9.032;2023-04-29T06:09:56;11.30;99.90
13470;DHT22;6807;48.682;9.032;2023-04-29T06:12:25;11.20;99.00
13470;DHT22;6807;48.682;9.032;2023-04-29T06:14:52;11.20;57.10
13470;DHT22;6807;48.682;9.032;2023-04-29T06:17:19;11.90;91.00
13470;DHT22;6807;48.682;9.032;2023-04-29T06:19:47;12.30;16.70
13470;DHT22;6807;48.682;9.032;2023-04-29T06:22:14;13.00;11.90
13470;DHT22;6807;48.682;9.032;2023-04-29T06:24:41;12.60;99.90
13470;DHT22;6807;48.682;9.032;2023-04-29T06:27:08;12.70;99.90
13470;DHT22;6807;48.682;9.032;2023-04-29T06:29:37;13.10;15.40
13470;DHT22;6807;48.682;9.032;2023-04-29T06:32:04;13.20;99.90
13470;DHT22;6807;48.682;9.032;2023-04-29T06:34:31;13.00;99.90
13470;DHT22;6807;48.682;9.032;2023-04-29T06:36:58;12.80;99.90
13470;DHT22;6807;48.682;9.032;2023-04-29T06:39:26;12.50;99.90
13470;DHT22;6807;48.682;9.032;2023-04-29T06:41:53;12.40;99.90
13470;DHT22;6807;48.682;9.032;2023-04-29T06:44:21;12.40;99.90
13470;DHT22;6807;48.682;9.032;2023-04-29T06:46:49;13.40;99.90
13470;DHT22;6807;48.682;9.032;2023-04-29T06:49:16;14.20;39.40
13470;DHT22;6807;48.682;9.032;2023-04-29T06:51:44;15.30;1.00
13470;DHT22;6807;48.682;9.032;2023-04-29T06:54:12;15.90;1.00
13470;DHT22;6807;48.682;9.032;2023-04-29T06:56:39;16.10;1.00
13470;DHT22;6807;48.682;9.032;2023-04-29T06:59:07;16.30;99.90
13470;DHT22;6807;48.682;9.032;2023-04-29T07:01:35;17.00;99.90
13470;DHT22;6807;48.682;9.032;2023-04-29T07:04:04;16.10;99.90
13470;DHT22;6807;48.682;9.032;2023-04-29T07:06:31;15.50;99.90
13470;DHT22;6807;48.682;9.032;2023-04-29T07:08:58;14.90;99.90
13470;DHT22;6807;48.682;9.032;2023-04-29T07:11:26;15.30;99.90
13470;DHT22;6807;48.682;9.032;2023-04-29T07:13:53;16.20;99.90
13470;DHT22;6807;48.682;9.032;2023-04-29T07:16:21;17.00;99.90
13470;DHT22;6807;48.682;9.032;2023-04-29T07:18:51;17.80;99.90
13470;DHT22;6807;48.682;9.032;2023-04-29T07:21:20;17.20;99.90
13470;DHT22;6807;48.682;9.032;2023-04-29T07:23:49;16.30;99.90
13470;DHT22;6807;48.682;9.032;2023-04-29T07:26:16;15.90;99.90
13470;DHT22;6807;48.682;9.032;2023-04-29T07:28:44;15.20;99.90
13470;DHT22;6807;48.682;9.032;2023-04-29T07:31:11;14.60;99.90
13470;DHT22;6807;48.682;9.032;2023-04-29T07:33:39;14.50;99.90
13470;DHT22;6807;48.682;9.032;2023-04-29T07:36:07;14.30;99.90
13470;DHT22;6807;48.682;9.032;2023-04-29T07:38:36;14.30;99.90
13470;DHT22;6807;48.682;9.032;2023-04-29T07:41:03;14.40;99.90
13470;DHT22;6807;48.682;9.032;2023-04-29T07:43:32;14.50;99.90
13470;DHT22;6807;48.682;9.032;2023-04-29T07:45:59;14.40;99.90
13470;DHT22;6807;48.682;9.032;2023-04-29T07:48:27;14.20;99.90
13470;DHT22;6807;48.682;9.032;2023-04-29T07:50:54;13.80;99.90
13470;DHT22;6807;48.682;9.032;2023-04-29T07:53:21;14.00;99.90
13470;DHT22;6807;48.682;9.032;2023-04-29T07:55:50;14.00;99.90
13470;DHT22;6807;48.682;9.032;2023-04-29T07:58:17;14.30;99.90
13470;DHT22;6807;48.682;9.032;2023-04-29T08:00:45;14.80;99.90
13470;DHT22;6807;48.682;9.032;2023-04-29T08:03:13;15.10;99.90
13470;DHT22;6807;48.682;9.032;2023-04-29T08:05:41;15.10;99.90
13470;DHT22;6807;48.682;9.032;2023-04-29T08:08:10;15.10;99.90
13470;DHT22;6807;48.682;9.032;2023-04-29T08:10:38;14.60;99.90
13470;DHT22;6807;48.682;9.032;2023-04-29T08:13:11;14.80;99.90
13470;DHT22;6807;48.682;9.032;2023-04-29T08:15:38;14.90;99.90
13470;DHT22;6807;48.682;9.032;2023-04-29T08:18:05;14.80;99.90
13470;DHT22;6807;48.682;9.032;2023-04-29T08:20:33;15.30;99.90
13470;DHT22;6807;48.682;9.032;2023-04-29T08:23:02;15.70;99.90
13470;DHT22;6807;48.682;9.032;2023-04-29T08:25:30;15.70;99.90
13470;DHT22;6807;48.682;9.032;2023-04-29T08:27:58;16.00;99.90
13470;DHT22;6807;48.682;9.032;2023-04-29T08:30:26;16.40;99.90
13470;DHT22;6807;48.682;9.032;2023-04-29T08:32:53;16.90;99.90
13470;DHT22;6807;48.682;9.032;2023-04-29T08:35:21;16.70;99.90
13470;DHT22;6807;48.682;9.032;2023-04-29T08:37:49;16.50;99.90
13470;DHT22;6807;48.682;9.032;2023-04-29T08:40:17;16.80;99.90
13470;DHT22;6807;48.682;9.032;2023-04-29T08:42:44;17.10;99.90
13470;DHT22;6807;48.682;9.032;2023-04-29T08:45:12;16.70;99.90
13470;DHT22;6807;48.682;9.032;2023-04-29T08:47:44;16.90;99.90
13470;DHT22;6807;48.682;9.032;2023-04-29T08:50:12;17.20;99.90
13470;DHT22;6807;48.682;9.032;2023-04-29T08:52:39;17.00;99.90
13470;DHT22;6807;48.682;9.032;2023-04-29T08:55:08;17.60;99.90
13470;DHT22;6807;48.682;9.032;2023-04-29T08:57:35;18.90;99.90
13470;DHT22;6807;48.682;9.032;2023-04-29T09:00:06;18.80;99.90
13470;DHT22;6807;48.682;9.032;2023-04-29T09:02:40;17.70;99.90
13470;DHT22;6807;48.682;9.032;2023-04-29T09:05:11;17.60;99.90
13470;DHT22;6807;48.682;9.032;2023-04-29T09:07:38;17.90;99.90
13470;DHT22;6807;48.682;9.032;2023-04-29T09:10:07;17.80;99.90
13470;DHT22;6807;48.682;9.032;2023-04-29T09:12:34;17.30;99.90
13470;DHT22;6807;48.682;9.032;2023-04-29T09:15:02;16.90;99.90
13470;DHT22;6807;48.682;9.032;2023-04-29T09:17:41;18.80;99.90
13470;DHT22;6807;48.682;9.032;2023-04-29T09:20:29;19.50;99.90
13470;DHT22;6807;48.682;9.032;2023-04-29T09:22:59;18.70;99.90
13470;DHT22;6807;48.682;9.032;2023-04-29T09:25:27;18.00;99.90
13470;DHT22;6807;48.682;9.032;2023-04-29T09:27:56;17.00;99.90
13470;DHT22;6807;48.682;9.032;2023-04-29T09:30:23;16.70;99.90
13470;DHT22;6807;48.682;9.032;2023-04-29T09:33:05;16.40;99.90
13470;DHT22;6807;48.682;9.032;2023-04-29T09:35:34;16.00;99.90
13470;DHT22;6807;48.682;9.032;2023-04-29T09:38:11;16.10;99.90
13470;DHT22;6807;48.682;9.032;2023-04-29T09:40:39;15.50;99.90
13470;DHT22;6807;48.682;9.032;2023-04-29T09:43:11;16.90;99.90
13470;DHT22;6807;48.682;9.032;2023-04-29T09:45:42;16.60;99.90
13470;DHT22;6807;48.682;9.032;2023-04-29T09:48:10;16.00;99.90
13470;DHT22;6807;48.682;9.032;2023-04-29T09:50:42;15.60;99.90
13470;DHT22;6807;48.682;9.032;2023-04-29T09:53:10;15.70;99.90
13470;DHT22;6807;48.682;9.032;2023-04-29T09:55:58;15.70;99.90
13470;DHT22;6807;48.682;9.032;2023-04-29T09:58:27;15.80;99.90
13470;DHT22;6807;48.682;9.032;2023-04-29T10:00:57;16.10;99.90
13470;DHT22;6807;48.682;9.032;2023-04-29T10:03:26;16.50;99.90
13470;DHT22;6807;48.682;9.032;2023-04-29T10:05:57;17.00;99.90
13470;DHT22;6807;48.682;9.032;2023-04-29T10:08:26;17.40;99.90
13470;DHT22;6807;48.682;9.032;2023-04-29T10:10:53;17.80;99.90
13470;DHT22;6807;48.682;9.032;2023-04-29T10:13:23;17.80;99.90
13470;DHT22;6807;48.682;9.032;2023-04-29T10:15:57;18.70;99.90
13470;DHT22;6807;48.682;9.032;2023-04-29T10:18:33;20.10;99.90
13470;DHT22;6807;48.682;9.032;2023-04-29T10:21:06;20.80;99.90
13470;DHT22;6807;48.682;9.032;2023-04-29T10:23:35;21.00;99.90
13470;DHT22;6807;48.682;9.032;2023-04-29T10:26:03;21.10;99.90
13470;DHT22;6807;48.682;9.032;2023-04-29T10:28:31;22.30;99.90
13470;DHT22;6807;48.682;9.032;2023-04-29T10:31:00;21.10;99.90
13470;DHT22;6807;48.682;9.032;2023-04-29T10:33:30;21.40;99.90
13470;DHT22;6807;48.682;9.032;2023-04-29T10:35:58;20.50;99.90
13470;DHT22;6807;48.682;9.032;2023-04-29T10:38:31;18.80;99.90
13470;DHT22;6807;48.682;9.032;2023-04-29T10:41:14;18.20;99.90
13470;DHT22;6807;48.682;9.032;2023-04-29T10:43:42;17.60;99.90
13470;DHT22;6807;48.682;9.032;2023-04-29T10:46:17;19.20;99.90
13470;DHT22;6807;48.682;9.032;2023-04-29T10:48:45;20.00;99.90
13470;DHT22;6807;48.682;9.032;2023-04-29T10:51:12;20.90;99.90
13470;DHT22;6807;48.682;9.032;2023-04-29T10:54:01;21.60;99.90
13470;DHT22;6807;48.682;9.032;2023-04-29T10:56:42;21.20;99.90
13470;DHT22;6807;48.682;9.032;2023-04-29T10:59:15;19.70;99.30
13470;DHT22;6807;48.682;9.032;2023-04-29T11:01:47;20.50;99.90
13470;DHT22;6807;48.682;9.032;2023-04-29T11:04:15;20.30;99.90
13470;DHT22;6807;48.682;9.032;2023-04-29T11:06:49;19.50;99.90
13470;DHT22;6807;48.682;9.032;2023-04-29T11:09:25;19.40;99.90
13470;DHT22;6807;48.682;9.032;2023-04-29T11:11:59;18.20;99.90
13470;DHT22;6807;48.682;9.032;2023-04-29T11:14:33;19.80;99.90
13470;DHT22;6807;48.682;9.032;2023-04-29T11:17:03;20.40;99.90
13470;DHT22;6807;48.682;9.032;2023-04-29T11:19:33;21.70;99.90
13470;DHT22;6807;48.682;9.032;2023-04-29T11:22:24;22.90;99.90
13470;DHT22;6807;48.682;9.032;2023-04-29T11:24:55;21.30;99.90
13470;DHT22;6807;48.682;9.032;2023-04-29T11:27:23;20.90;99.90
13470;DHT22;6807;48.682;9.032;2023-04-29T11:29:54;20.40;99.90
13470;DHT22;6807;48.682;9.032;2023-04-29T11:32:23;20.20;99.90
13470;DHT22;6807;48.682;9.032;2023-04-29T11:34:50;19.90;85.00
13470;DHT22;6807;48.682;9.032;2023-04-29T11:37:22;19.80;96.70
13470;DHT22;6807;48.682;9.032;2023-04-29T11:39:49;20.70;99.90
13470;DHT22;6807;48.682;9.032;2023-04-29T11:42:22;20.00;71.10
13470;DHT22;6807;48.682;9.032;2023-04-29T11:44:53;19.60;91.80
13470;DHT22;6807;48.682;9.032;2023-04-29T11:47:25;21.40;79.80
13470;DHT22;6807;48.682;9.032;2023-04-29T11:50:02;21.30;90.50
13470;DHT22;6807;48.682;9.032;2023-04-29T11:52:29;20.60;43.30
13470;DHT22;6807;48.682;9.032;2023-04-29T11:54:57;21.20;99.90
13470;DHT22;6807;48.682;9.032;2023-04-29T11:57:27;20.60;99.90
13470;DHT22;6807;48.682;9.032;2023-04-29T11:59:56;21.30;99.90
13470;DHT22;6807;48.682;9.032;2023-04-29T12:02:28;21.30;99.90
13470;DHT22;6807;48.682;9.032;2023-04-29T12:04:55;20.80;96.30
13470;DHT22;6807;48.682;9.032;2023-04-29T12:07:23;21.50;99.90
13470;DHT22;6807;48.682;9.032;2023-04-29T12:09:50;21.80;99.90
13470;DHT22;6807;48.682;9.032;2023-04-29T12:12:18;22.30;92.20
13470;DHT22;6807;48.682;9.032;2023-04-29T12:14:47;21.30;99.90
13470;DHT22;6807;48.682;9.032;2023-04-29T12:17:15;21.10;99.90
13470;DHT22;6807;48.682;9.032;2023-04-29T12:19:43;20.20;99.90
13470;DHT22;6807;48.682;9.032;2023-04-29T12:22:12;18.60;86.20
13470;DHT22;6807;48.682;9.032;2023-04-29T12:24:39;20.00;99.90
13470;DHT22;6807;48.682;9.032;2023-04-29T12:27:07;21.00;99.90
13470;DHT22;6807;48.682;9.032;2023-04-29T12:29:58;20.80;50.70
13470;DHT22;6807;48.682;9.032;2023-04-29T12:32:25;21.10;99.90
13470;DHT22;6807;48.682;9.032;2023-04-29T12:34:52;21.10;99.90
13470;DHT22;6807;48.682;9.032;2023-04-29T12:37:20;20.40;89.50
13470;DHT22;6807;48.682;9.032;2023-04-29T12:57:07;20.50;99.90
13470;DHT22;6807;48.682;9.032;2023-04-29T13:06:47;21.20;99.90
13470;DHT22;6807;48.682;9.032;2023-04-29T13:19:48;23.40;99.90
13470;DHT22;6807;48.682;9.032;2023-04-29T13:22:15;22.20;99.90
13470;DHT22;6807;48.682;9.032;2023-04-29T13:24:42;22.50;99.90
13470;DHT22;6807;48.682;9.032;2023-04-29T13:27:10;21.50;99.90
13470;DHT22;6807;48.682;9.032;2023-04-29T13:29:37;21.60;99.90
13470;DHT22;6807;48.682;9.032;2023-04-29T13:32:04;22.00;99.90
13470;DHT22;6807;48.682;9.032;2023-04-29T13:34:33;22.10;99.90
13470;DHT22;6807;48.682;9.032;2023-04-29T13:37:02;21.60;99.90
13470;DHT22;6807;48.682;9.032;2023-04-29T13:39:29;21.50;99.90
13470;DHT22;6807;48.682;9.032;2023-04-29T13:41:56;21.80;99.90
13470;DHT22;6807;48.682;9.032;2023-04-29T13:44:24;21.80;99.90
13470;DHT22;6807;48.682;9.032;2023-04-29T13:46:51;21.90;99.90
13470;DHT22;6807;48.682;9.032;2023-04-29T13:49:18;21.30;99.90
13470;DHT22;6807;48.682;9.032;2023-04-29T13:51:46;20.30;99.90
13470;DHT22;6807;48.682;9.032;2023-04-29T13:54:14;20.50;99.90
13470;DHT22;6807;48.682;9.032;2023-04-29T13:56:41;20.10;99.90
13470;DHT22;6807;48.682;9.032;2023-04-29T13:59:08;19.40;99.90
13470;DHT22;6807;48.682;9.032;2023-04-29T14:01:35;19.80;99.90
13470;DHT22;6807;48.682;9.032;2023-04-29T14:04:02;20.60;99.90
13470;DHT22;6807;48.682;9.032;2023-04-29T14:06:30;21.10;99.90
13470;DHT22;6807;48.682;9.032;2023-04-29T14:08:57;21.00;99.90
13470;DHT22;6807;48.682;9.032;2023-04-29T14:11:26;20.80;99.90
13470;DHT22;6807;48.682;9.032;2023-04-29T14:13:53;20.80;99.90
13470;DHT22;6807;48.682;9.032;2023-04-29T14:16:20;20.90;99.90
13470;DHT22;6807;48.682;9.032;2023-04-29T14:18:48;20.40;99.90
13470;DHT22;6807;48.682;9.032;2023-04-29T14:21:15;20.00;99.90
13470;DHT22;6807;48.682;9.032;2023-04-29T14:23:42;20.50;99.90
13470;DHT22;6807;48.682;9.032;2023-04-29T14:26:09;20.50;99.90
13470;DHT22;6807;48.682;9.032;2023-04-29T14:28:38;19.60;99.90
13470;DHT22;6807;48.682;9.032;2023-04-29T14:31:05;20.50;99.90
13470;DHT22;6807;48.682;9.032;2023-04-29T14:33:32;20.30;99.90
13470;DHT22;6807;48.682;9.032;2023-04-29T14:35:59;20.60;99.90
13470;DHT22;6807;48.682;9.032;2023-04-29T14:38:26;20.90;99.90
13470;DHT22;6807;48.682;9.032;2023-04-29T14:40:53;20.60;99.90
13470;DHT22;6807;48.682;9.032;2023-04-29T14:43:22;20.50;99.90
13470;DHT22;6807;48.682;9.032;2023-04-29T14:45:50;20.60;99.90
13470;DHT22;6807;48.682;9.032;2023-04-29T14:48:17;20.00;99.90
13470;DHT22;6807;48.682;9.032;2023-04-29T14:50:44;19.20;99.90
13470;DHT22;6807;48.682;9.032;2023-04-29T14:53:11;18.20;99.90
13470;DHT22;6807;48.682;9.032;2023-04-29T14:55:39;18.40;99.90
13470;DHT22;6807;48.682;9.032;2023-04-29T14:58:06;17.90;99.90
13470;DHT22;6807;48.682;9.032;2023-04-29T15:00:34;18.00;99.90
13470;DHT22;6807;48.682;9.032;2023-04-29T15:03:03;17.70;99.90
13470;DHT22;6807;48.682;9.032;2023-04-29T15:05:30;17.60;99.90
13470;DHT22;6807;48.682;9.032;2023-04-29T15:07:58;17.60;99.90
13470;DHT22;6807;48.682;9.032;2023-04-29T15:10:26;17.90;99.90
13470;DHT22;6807;48.682;9.032;2023-04-29T15:12:53;17.90;99.90
13470;DHT22;6807;48.682;9.032;2023-04-29T15:15:20;17.90;99.90
13470;DHT22;6807;48.682;9.032;2023-04-29T15:17:47;17.40;99.90
13470;DHT22;6807;48.682;9.032;2023-04-29T15:20:16;16.90;99.90
13470;DHT22;6807;48.682;9.032;2023-04-29T15:22:43;16.80;99.30
13470;DHT22;6807;48.682;9.032;2023-04-29T15:25:11;16.60;68.50
13470;DHT22;6807;48.682;9.032;2023-04-29T15:27:38;16.10;80.90
13470;DHT22;6807;48.682;9.032;2023-04-29T15:30:06;15.70;99.90
13470;DHT22;6807;48.682;9.032;2023-04-29T15:32:33;15.40;81.00
13470;DHT22;6807;48.682;9.032;2023-04-29T15:35:01;15.30;91.10
13470;DHT22;6807;48.682;9.032;2023-04-29T15:37:30;15.30;90.70
13470;DHT22;6807;48.682;9.032;2023-04-29T15:39:58;15.30;90.00
13470;DHT22;6807;48.682;9.032;2023-04-29T15:42:25;15.50;77.60
13470;DHT22;6807;48.682;9.032;2023-04-29T15:44:52;15.50;93.70
13470;DHT22;6807;48.682;9.032;2023-04-29T15:47:20;15.30;97.00
13470;DHT22;6807;48.682;9.032;2023-04-29T15:49:47;15.10;71.80
13470;DHT22;6807;48.682;9.032;2023-04-29T15:52:15;15.10;97.20
13470;DHT22;6807;48.682;9.032;2023-04-29T15:54:43;14.80;84.10
13470;DHT22;6807;48.682;9.032;2023-04-29T15:57:11;15.00;91.80
13470;DHT22;6807;48.682;9.032;2023-04-29T15:59:38;14.80;87.10
13470;DHT22;6807;48.682;9.032;2023-04-29T16:02:05;14.50;90.40
13470;DHT22;6807;48.682;9.032;2023-04-29T16:04:35;14.50;78.50
13470;DHT22;6807;48.682;9.032;2023-04-29T16:07:02;14.60;92.70
13470;DHT22;6807;48.682;9.032;2023-04-29T16:09:30;14.60;91.00
13470;DHT22;6807;48.682;9.032;2023-04-29T16:11:58;14.50;96.50
13470;DHT22;6807;48.682;9.032;2023-04-29T16:14:25;14.40;92.80
13470;DHT22;6807;48.682;9.032;2023-04-29T16:16:53;14.00;96.00
13470;DHT22;6807;48.682;9.032;2023-04-29T16:19:20;13.80;91.10
13470;DHT22;6807;48.682;9.032;2023-04-29T16:21:50;13.90;93.60
13470;DHT22;6807;48.682;9.032;2023-04-29T16:24:17;13.80;93.90
13470;DHT22;6807;48.682;9.032;2023-04-29T16:26:45;13.70;86.70
13470;DHT22;6807;48.682;9.032;2023-04-29T16:29:14;13.50;96.40
13470;DHT22;6807;48.682;9.032;2023-04-29T16:31:41;13.30;82.00
13470;DHT22;6807;48.682;9.032;2023-04-29T16:34:08;13.10;90.80
13470;DHT22;6807;48.682;9.032;2023-04-29T16:36:36;13.10;98.20
13470;DHT22;6807;48.682;9.032;2023-04-29T16:39:03;13.10;99.90